Time;durP1;ratioP1;P1;durP2;ratioP2;P2;SDS_P1;SDS_P2;PMS_P1;PMS_P2;Temp;Humidity;BMP_temperature;BMP_pressure;BME280_temperature;BME280_humidity;BME280_pressure;Samples;Min_cycle;Max_cycle;Signal;HPM_P1;HPM_P2
2022/07/10 00:01:07;;;;;;;7.07;5.70;;;;;;;20.41;100.00;96835.97;5075323;28;20518;-52
2022/07/10 00:03:35;;;;;;;7.20;5.13;;;;;;;20.22;100.00;96834.00;5080094;28;20461;-53
2022/07/10 00:06:06;;;;;;;5.93;5.32;;;;;;;20.03;100.00;96855.09;5079206;28;20082;-49
2022/07/10 00:08:35;;;;;;;5.88;4.70;;;;;;;20.21;100.00;96853.75;5082690;28;20427;-48
2022/07/10 00:11:04;;;;;;;7.05;4.93;;;;;;;20.02;100.00;96856.09;5077313;28;20864;-54
2022/07/10 00:13:32;;;;;;;6.40;5.80;;;;;;;19.76;100.00;96870.09;5081468;28;20039;-48
2022/07/10 00:16:02;;;;;;;5.70;5.20;;;;;;;19.80;100.00;96870.53;5075145;28;20621;-52
2022/07/10 00:18:30;;;;;;;7.00;5.65;;;;;;;19.78;100.00;96867.22;5077310;28;20072;-51
2022/07/10 00:20:59;;;;;;;7.78;5.60;;;;;;;19.75;100.00;96859.56;5078573;28;20068;-50
2022/07/10 00:23:29;;;;;;;7.47;4.97;;;;;;;19.56;100.00;96861.84;5080056;28;20435;-49
2022/07/10 00:25:57;;;;;;;7.30;5.57;;;;;;;19.68;100.00;96849.66;5081052;28;20518;-54
2022/07/10 00:28:25;;;;;;;8.65;6.47;;;;;;;19.78;100.00;96856.50;5076883;28;20533;-51
2022/07/10 00:30:54;;;;;;;6.22;5.60;;;;;;;19.75;100.00;96854.22;5080747;28;20070;-51
2022/07/10 00:33:22;;;;;;;7.22;5.90;;;;;;;19.65;100.00;96850.03;5076449;28;20554;-51
2022/07/10 00:35:51;;;;;;;8.15;6.28;;;;;;;19.57;100.00;96863.50;5076851;28;20086;-47
2022/07/10 00:38:19;;;;;;;7.65;6.35;;;;;;;19.46;100.00;96872.03;5073660;28;20084;-51
2022/07/10 00:40:49;;;;;;;6.22;5.65;;;;;;;19.43;100.00;96875.09;5074246;28;20083;-50
2022/07/10 00:43:17;;;;;;;6.53;5.93;;;;;;;19.39;100.00;96877.31;5076440;28;20086;-52
2022/07/10 00:45:45;;;;;;;6.63;6.03;;;;;;;19.12;100.00;96891.41;5083133;28;20060;-46
2022/07/10 00:48:14;;;;;;;6.65;6.05;;;;;;;18.86;100.00;96898.09;5080305;28;20435;-49
2022/07/10 00:50:43;;;;;;;7.45;5.63;;;;;;;18.65;100.00;96922.84;5078615;28;20072;-50
2022/07/10 00:53:11;;;;;;;6.90;6.30;;;;;;;18.16;100.00;96909.97;5077776;28;20063;-54
2022/07/10 00:55:40;;;;;;;9.23;6.47;;;;;;;17.97;100.00;96929.19;5082462;28;20079;-50
2022/07/10 00:58:11;;;;;;;7.97;7.18;;;;;;;17.71;100.00;96924.16;5081414;28;20059;-54
2022/07/10 01:00:40;;;;;;;8.77;7.47;;;;;;;17.86;100.00;96934.91;5084169;28;20525;-49
2022/07/10 01:03:09;;;;;;;7.53;6.82;;;;;;;17.93;100.00;96926.03;5080519;28;20056;-49
2022/07/10 01:05:38;;;;;;;8.27;7.47;;;;;;;17.96;100.00;96933.69;5080449;28;20082;-48
2022/07/10 01:08:06;;;;;;;7.68;6.93;;;;;;;17.95;100.00;96928.50;5072947;28;20068;-51
2022/07/10 01:10:34;;;;;;;8.50;7.63;;;;;;;17.86;100.00;96922.44;5074782;28;20075;-49
2022/07/10 01:13:03;;;;;;;8.52;7.63;;;;;;;17.86;100.00;96919.75;5077521;28;20074;-51
2022/07/10 01:15:35;;;;;;;8.65;7.85;;;;;;;17.94;100.00;96921.53;5082586;28;20079;-46
2022/07/10 01:18:04;;;;;;;8.50;7.78;;;;;;;17.98;100.00;96920.16;5081337;28;20071;-50
2022/07/10 01:20:33;;;;;;;9.48;8.43;;;;;;;17.92;100.00;96918.19;5078384;28;20071;-50
2022/07/10 01:23:03;;;;;;;8.90;8.10;;;;;;;17.89;100.00;96913.22;5076215;28;20494;-54
2022/07/10 01:25:32;;;;;;;9.50;8.60;;;;;;;17.79;100.00;96911.66;5078882;28;20519;-47
2022/07/10 01:28:00;;;;;;;10.60;9.35;;;;;;;17.85;100.00;96914.59;5080158;28;20467;-47
2022/07/10 01:30:29;;;;;;;9.45;8.65;;;;;;;17.92;100.00;96919.03;5081833;28;20075;-46
2022/07/10 01:32:57;;;;;;;9.88;8.93;;;;;;;17.78;100.00;96901.97;5073550;28;20181;-50
2022/07/10 01:35:26;;;;;;;9.90;8.70;;;;;;;17.70;100.00;96896.66;5071070;28;20324;-50
2022/07/10 01:37:54;;;;;;;10.75;9.15;;;;;;;17.72;100.00;96892.00;5078879;28;20106;-46
2022/07/10 01:40:24;;;;;;;10.18;9.18;;;;;;;17.84;100.00;96888.94;5073143;28;20084;-50
2022/07/10 01:42:53;;;;;;;9.90;8.87;;;;;;;17.86;100.00;96882.41;5080110;28;20131;-51
2022/07/10 01:45:22;;;;;;;10.38;9.43;;;;;;;17.99;100.00;96879.94;5073813;28;20569;-53
2022/07/10 01:47:50;;;;;;;9.93;8.93;;;;;;;17.74;100.00;96876.63;5076677;28;20080;-49
2022/07/10 01:50:18;;;;;;;10.70;9.60;;;;;;;17.95;100.00;96869.81;5075447;28;20076;-50
2022/07/10 01:52:47;;;;;;;10.05;9.05;;;;;;;18.01;100.00;96869.91;5080328;28;20036;-54
2022/07/10 01:55:16;;;;;;;11.38;9.48;;;;;;;17.74;100.00;96863.28;5076233;28;20086;-50
2022/07/10 01:57:45;;;;;;;9.73;8.73;;;;;;;17.88;100.00;96860.88;5073585;28;20063;-46
2022/07/10 02:00:14;;;;;;;9.02;8.13;;;;;;;17.83;100.00;96869.44;5068233;28;20067;-52
2022/07/10 02:04:40;;;;;;;9.45;8.55;;;;;;;17.98;100.00;96864.13;5074651;28;20091;-53
2022/07/10 02:05:30;;;;;;;10.45;8.18;;;;;;;17.88;100.00;96858.19;5075844;28;20075;-48
2022/07/10 02:07:59;;;;;;;8.98;8.07;;;;;;;17.92;100.00;96856.81;5074347;28;20078;-56
2022/07/10 02:10:27;;;;;;;13.23;8.82;;;;;;;17.69;100.00;96859.50;5073796;28;20075;-51
2022/07/10 02:12:57;;;;;;;10.95;9.25;;;;;;;17.94;100.00;96860.16;5076297;28;20060;-48
2022/07/10 02:15:26;;;;;;;10.60;8.80;;;;;;;17.96;100.00;96848.31;5071419;28;20040;-50
2022/07/10 02:17:54;;;;;;;9.63;8.45;;;;;;;17.62;100.00;96851.41;5074657;28;20040;-46
2022/07/10 02:20:23;;;;;;;9.70;8.68;;;;;;;17.78;100.00;96864.59;5080565;28;20138;-51
2022/07/10 02:22:51;;;;;;;10.73;8.93;;;;;;;17.58;100.00;96859.91;5078024;28;20652;-46
2022/07/10 02:25:20;;;;;;;11.20;9.02;;;;;;;17.58;100.00;96873.25;5075870;28;20510;-49
2022/07/10 02:27:48;;;;;;;11.27;9.90;;;;;;;17.51;100.00;96868.63;5076430;28;20088;-50
2022/07/10 02:30:18;;;;;;;9.93;9.00;;;;;;;17.58;100.00;96867.91;5076974;28;20072;-49
2022/07/10 02:32:46;;;;;;;9.60;8.63;;;;;;;17.15;100.00;96873.72;5078166;28;20063;-49
2022/07/10 02:35:15;;;;;;;9.65;8.75;;;;;;;17.20;100.00;96882.00;5075501;28;20067;-48
2022/07/10 02:37:43;;;;;;;9.65;8.65;;;;;;;17.32;100.00;96874.44;5078027;28;20083;-50
2022/07/10 02:40:12;;;;;;;9.50;8.40;;;;;;;17.38;100.00;96870.22;5075234;28;20078;-48
2022/07/10 02:42:40;;;;;;;9.65;8.73;;;;;;;17.39;100.00;96872.72;5077079;28;20084;-49
2022/07/10 02:45:09;;;;;;;10.02;8.90;;;;;;;17.15;100.00;96875.56;5077482;28;20071;-49
2022/07/10 02:47:39;;;;;;;9.65;8.77;;;;;;;17.28;100.00;96881.13;5074627;28;20091;-50
2022/07/10 02:50:09;;;;;;;10.48;9.48;;;;;;;17.40;100.00;96879.72;5074052;28;20083;-48
2022/07/10 02:52:37;;;;;;;10.25;9.25;;;;;;;17.45;100.00;96871.19;5071595;28;20613;-48
2022/07/10 02:55:07;;;;;;;10.38;9.38;;;;;;;17.50;100.00;96866.16;5080743;28;20090;-50
2022/07/10 02:57:35;;;;;;;9.75;8.80;;;;;;;17.14;100.00;96873.91;5072993;28;20064;-49
2022/07/10 03:00:04;;;;;;;11.30;9.45;;;;;;;16.71;100.00;96876.88;5075897;28;20098;-52
2022/07/10 03:02:33;;;;;;;9.75;8.77;;;;;;;16.84;100.00;96879.03;5076879;28;20075;-48
2022/07/10 03:05:03;;;;;;;10.15;9.15;;;;;;;16.91;100.00;96889.81;5079439;28;20075;-49
2022/07/10 03:07:31;;;;;;;9.55;8.68;;;;;;;16.55;100.00;96880.47;5078062;28;20084;-49
2022/07/10 03:10:00;;;;;;;10.38;9.38;;;;;;;16.77;100.00;96878.91;5078918;28;20510;-50
2022/07/10 03:12:28;;;;;;;10.10;8.52;;;;;;;16.57;100.00;96880.28;5074216;28;20080;-48
2022/07/10 03:14:56;;;;;;;10.82;9.38;;;;;;;16.65;100.00;96874.06;5080440;28;20076;-53
2022/07/10 03:17:25;;;;;;;9.80;8.77;;;;;;;16.79;100.00;96868.91;5073919;28;20067;-53
2022/07/10 03:19:53;;;;;;;10.77;9.68;;;;;;;16.82;100.00;96865.88;5075191;28;20068;-53
2022/07/10 03:22:23;;;;;;;11.13;10.02;;;;;;;16.69;100.00;96875.38;5073696;28;20525;-48
2022/07/10 03:24:51;;;;;;;12.10;9.23;;;;;;;16.67;100.00;96867.59;5071694;28;20072;-48
2022/07/10 03:27:19;;;;;;;9.85;8.60;;;;;;;16.75;100.00;96872.91;5076058;28;20497;-46
2022/07/10 03:29:48;;;;;;;10.82;8.55;;;;;;;16.59;100.00;96876.44;5072300;28;20074;-47
2022/07/10 03:32:16;;;;;;;11.18;9.23;;;;;;;16.76;100.00;96863.94;5077311;28;20080;-50
2022/07/10 03:34:45;;;;;;;10.27;9.27;;;;;;;16.75;100.00;96866.75;5082229;28;20544;-49
2022/07/10 03:37:13;;;;;;;12.88;9.07;;;;;;;16.72;100.00;96861.72;5074979;28;20083;-50
2022/07/10 03:39:43;;;;;;;11.43;10.23;;;;;;;16.78;100.00;96863.75;5073472;28;20534;-53
2022/07/10 03:42:11;;;;;;;10.68;9.57;;;;;;;16.65;100.00;96855.44;5079176;28;20518;-50
2022/07/10 03:44:40;;;;;;;11.48;10.38;;;;;;;16.64;100.00;96862.59;5072107;28;20076;-48
2022/07/10 03:47:08;;;;;;;10.55;9.27;;;;;;;16.56;100.00;96858.16;5079902;28;20154;-53
2022/07/10 03:49:38;;;;;;;11.88;9.55;;;;;;;16.71;100.00;96854.75;5075078;28;20475;-51
2022/07/10 03:52:07;;;;;;;13.65;9.27;;;;;;;16.63;100.00;96854.78;5077201;28;20079;-50
2022/07/10 03:54:35;;;;;;;10.85;9.63;;;;;;;16.71;100.00;96852.91;5076368;28;20071;-51
2022/07/10 03:59:57;;;;;;;10.57;9.13;;;;;;;16.76;100.00;96865.75;5069116;28;20079;-51
2022/07/10 04:02:25;;;;;;;9.85;8.95;;;;;;;16.92;100.00;96863.00;5076474;28;20084;-52
2022/07/10 04:04:54;;;;;;;10.43;9.25;;;;;;;17.07;100.00;96860.44;5080918;28;20060;-51
2022/07/10 04:07:23;;;;;;;10.30;9.30;;;;;;;17.47;100.00;96847.84;5075604;28;20099;-48
2022/07/10 04:09:51;;;;;;;10.18;9.18;;;;;;;17.97;100.00;96833.94;5078882;28;20076;-47
2022/07/10 04:12:21;;;;;;;9.35;8.45;;;;;;;17.78;100.00;96829.94;5077497;28;20087;-56
2022/07/10 04:14:51;;;;;;;8.90;8.05;;;;;;;18.15;100.00;96828.25;5073344;28;20088;-46
2022/07/10 04:17:19;;;;;;;10.07;7.97;;;;;;;18.33;100.00;96819.88;5081471;28;20079;-46
2022/07/10 04:19:47;;;;;;;7.30;6.32;;;;;;;17.87;100.00;96821.88;5076337;28;20080;-49
2022/07/10 04:22:16;;;;;;;8.18;7.38;;;;;;;17.63;100.00;96823.72;5073261;28;20072;-46
2022/07/10 04:24:44;;;;;;;8.68;7.80;;;;;;;18.07;100.00;96836.34;5077998;28;20095;-53
2022/07/10 04:27:12;;;;;;;8.90;8.05;;;;;;;17.95;100.00;96832.44;5082683;28;20813;-53
2022/07/10 04:29:42;;;;;;;8.80;7.50;;;;;;;17.73;100.00;96828.81;5078512;28;20095;-49
2022/07/10 04:32:11;;;;;;;10.55;9.45;;;;;;;18.42;100.00;96829.44;5077346;28;20095;-52
2022/07/10 04:34:39;;;;;;;9.23;8.35;;;;;;;18.83;100.00;96826.31;5080239;28;20072;-50
2022/07/10 04:37:08;;;;;;;7.72;7.00;;;;;;;18.19;100.00;96826.84;5078863;28;20083;-53
2022/07/10 04:39:37;;;;;;;8.55;7.78;;;;;;;18.62;100.00;96820.88;5079012;28;20652;-51
2022/07/10 04:42:06;;;;;;;9.57;7.55;;;;;;;18.07;100.00;96828.34;5080036;28;20076;-51
2022/07/10 04:44:35;;;;;;;9.15;7.57;;;;;;;17.61;100.00;96838.22;5076043;28;20518;-48
2022/07/10 04:47:06;;;;;;;9.05;8.25;;;;;;;17.68;100.00;96852.50;5075170;28;20056;-53
2022/07/10 04:49:34;;;;;;;;;;;;;;;17.83;100.00;96849.94;5080445;28;20726;-50
2022/07/10 04:52:03;;;;;;;8.27;7.53;;;;;;;17.84;100.00;96851.56;5079219;28;19971;-53
2022/07/10 04:54:32;;;;;;;9.60;8.70;;;;;;;17.76;100.00;96861.31;5075458;28;20084;-56
2022/07/10 04:57:00;;;;;;;9.23;8.30;;;;;;;18.04;100.00;96860.72;5079840;28;20090;-61
2022/07/10 04:59:29;;;;;;;8.80;8.00;;;;;;;18.03;100.00;96857.22;5073891;28;20079;-51
2022/07/10 05:01:57;;;;;;;8.77;8.00;;;;;;;18.08;100.00;96861.19;5077130;28;20079;-49
2022/07/10 05:04:27;;;;;;;8.68;7.78;;;;;;;18.02;100.00;96860.06;5074989;28;20080;-55
2022/07/10 05:06:55;;;;;;;9.45;8.55;;;;;;;18.24;100.00;96855.69;5073821;28;20545;-54
2022/07/10 05:09:23;;;;;;;9.55;8.63;;;;;;;17.94;100.00;96860.16;5075969;28;20562;-53
2022/07/10 05:11:52;;;;;;;9.73;8.82;;;;;;;17.96;100.00;96853.63;5077554;28;20087;-51
2022/07/10 05:14:20;;;;;;;9.85;8.95;;;;;;;18.16;100.00;96861.09;5071985;28;20080;-52
2022/07/10 05:16:48;;;;;;;9.65;8.50;;;;;;;18.22;100.00;96863.88;5076856;28;20086;-50
2022/07/10 05:19:17;;;;;;;10.60;9.60;;;;;;;18.72;100.00;96851.66;5080562;28;20075;-53
2022/07/10 05:21:46;;;;;;;10.40;9.32;;;;;;;18.13;100.00;96864.94;5080673;28;20137;-54
2022/07/10 05:24:15;;;;;;;10.60;9.68;;;;;;;18.37;100.00;96855.88;5076012;28;20080;-53
2022/07/10 05:26:43;;;;;;;9.75;8.85;;;;;;;18.23;100.00;96859.34;5074823;28;20077;-53
2022/07/10 05:29:11;;;;;;;12.20;9.60;;;;;;;18.29;100.00;96871.97;5074829;28;20084;-55
2022/07/10 05:31:40;;;;;;;9.82;8.93;;;;;;;18.23;100.00;96870.84;5075905;28;20087;-57
2022/07/10 05:34:08;;;;;;;10.18;9.13;;;;;;;18.21;100.00;96864.91;5074923;28;20091;-52
2022/07/10 05:36:37;;;;;;;10.75;9.30;;;;;;;18.06;100.00;96866.69;5080885;28;20080;-51
2022/07/10 05:39:06;;;;;;;11.05;10.05;;;;;;;18.18;100.00;96873.25;5073519;28;20068;-54
2022/07/10 05:41:36;;;;;;;12.40;10.50;;;;;;;18.36;100.00;96867.56;5077458;28;20067;-51
2022/07/10 05:44:04;;;;;;;12.30;11.05;;;;;;;18.90;100.00;96853.94;5079308;28;20497;-54
2022/07/10 05:46:32;;;;;;;10.60;9.48;;;;;;;18.85;100.00;96858.16;5073368;28;20785;-54
2022/07/10 05:49:01;;;;;;;10.45;9.38;;;;;;;18.95;100.00;96864.06;5073970;28;20083;-54
2022/07/10 05:51:29;;;;;;;10.30;9.30;;;;;;;18.96;100.00;96871.06;5075597;28;20080;-52
2022/07/10 05:54:06;;;;;;;11.65;10.55;;;;;;;19.16;100.00;96871.28;5077682;28;20079;-52
2022/07/10 05:56:34;;;;;;;13.13;10.48;;;;;;;19.00;100.00;96867.00;5071307;28;20116;-49
2022/07/10 05:59:03;;;;;;;11.23;10.13;;;;;;;19.41;100.00;96856.56;5072218;28;20075;-50
2022/07/10 06:01:31;;;;;;;11.27;9.73;;;;;;;19.52;100.00;96855.22;5075645;28;20082;-51
2022/07/10 06:04:00;;;;;;;11.23;10.07;;;;;;;19.70;100.00;96845.94;5074572;28;20080;-55
2022/07/10 06:06:28;;;;;;;10.57;9.57;;;;;;;19.84;100.00;96839.69;5077253;28;20083;-47
2022/07/10 06:08:56;;;;;;;12.48;11.00;;;;;;;19.89;100.00;96838.09;5076140;28;20083;-51
2022/07/10 06:11:26;;;;;;;13.15;11.95;;;;;;;19.80;100.00;96833.06;5074280;28;20075;-52
2022/07/10 06:13:54;;;;;;;11.77;10.57;;;;;;;20.08;100.00;96843.78;5075354;28;20067;-52
2022/07/10 06:16:23;;;;;;;13.65;12.35;;;;;;;20.09;100.00;96832.84;5076617;28;20532;-52
2022/07/10 06:18:51;;;;;;;12.10;11.00;;;;;;;20.27;100.00;96836.91;5072778;28;20452;-51
2022/07/10 06:21:21;;;;;;;12.98;10.80;;;;;;;19.66;100.00;96840.97;5075130;28;20092;-51
2022/07/10 06:23:50;;;;;;;12.13;11.00;;;;;;;20.10;100.00;96847.94;5074970;28;20071;-50
2022/07/10 06:26:19;;;;;;;12.95;11.85;;;;;;;20.15;100.00;96844.66;5075086;28;20574;-53
2022/07/10 06:28:49;;;;;;;13.63;12.45;;;;;;;20.17;100.00;96841.78;5075730;28;20075;-56
2022/07/10 06:31:17;;;;;;;13.02;11.80;;;;;;;20.19;100.00;96829.84;5077779;28;20079;-51
2022/07/10 06:33:46;;;;;;;13.85;12.57;;;;;;;19.97;100.00;96838.97;5078487;28;20076;-51
2022/07/10 06:36:14;;;;;;;12.57;11.48;;;;;;;20.05;100.00;96839.63;5074047;28;20076;-52
2022/07/10 06:38:42;;;;;;;13.57;12.38;;;;;;;20.04;100.00;96842.53;5076559;28;20128;-51
2022/07/10 06:41:11;;;;;;;13.10;11.90;;;;;;;20.03;100.00;96840.88;5079299;28;20075;-45
2022/07/10 06:43:39;;;;;;;13.00;11.52;;;;;;;21.00;100.00;96842.66;5075545;28;20086;-54
2022/07/10 06:46:09;;;;;;;12.95;11.60;;;;;;;21.44;100.00;96838.66;5079061;28;20624;-51
2022/07/10 06:48:39;;;;;;;13.43;12.23;;;;;;;21.27;100.00;96831.00;5074183;28;20545;-51
2022/07/10 06:51:08;;;;;;;12.48;11.27;;;;;;;20.51;100.00;96841.84;5070393;28;20091;-55
2022/07/10 06:53:45;;;;;;;19.67;13.27;;;;;;;20.75;100.00;96843.19;5077949;28;20091;-53
2022/07/10 06:56:15;;;;;;;13.88;12.20;;;;;;;20.45;100.00;96839.91;5077070;28;20088;-53
2022/07/10 06:58:43;;;;;;;13.18;11.90;;;;;;;20.01;100.00;96849.09;5074905;28;20084;-49
2022/07/10 07:01:13;;;;;;;12.68;11.48;;;;;;;20.32;100.00;96845.19;5077858;28;20076;-48
2022/07/10 07:03:41;;;;;;;13.05;11.82;;;;;;;20.33;100.00;96842.28;5080042;28;20075;-48
2022/07/10 07:06:10;;;;;;;12.13;10.93;;;;;;;20.62;100.00;96837.75;5081666;28;20463;-51
2022/07/10 07:08:38;;;;;;;13.27;11.32;;;;;;;21.15;100.00;96839.81;5075859;28;20087;-49
2022/07/10 07:11:07;;;;;;;12.48;11.48;;;;;;;21.33;100.00;96842.75;5081906;28;20619;-51
2022/07/10 07:13:36;;;;;;;12.88;11.85;;;;;;;21.25;100.00;96846.44;5082558;28;20079;-49
2022/07/10 07:16:08;;;;;;;12.60;11.43;;;;;;;20.81;100.00;96847.72;5079802;28;20487;-53
2022/07/10 07:18:47;;;;;;;12.75;11.45;;;;;;;21.47;100.00;96857.03;5078030;28;20107;-53
2022/07/10 07:24:01;;;;;;;12.18;11.07;;;;;;;21.78;100.00;96859.16;5075079;28;20455;-52
2022/07/10 07:26:29;;;;;;;12.95;11.77;;;;;;;20.15;100.00;96863.41;5074113;28;20773;-49
2022/07/10 07:28:58;;;;;;;13.65;12.55;;;;;;;20.68;100.00;96869.13;5079998;28;20131;-55
2022/07/10 07:31:26;;;;;;;13.95;12.73;;;;;;;20.93;100.00;96857.91;5077352;28;20098;-54
2022/07/10 07:33:56;;;;;;;14.38;13.00;;;;;;;20.71;100.00;96863.34;5088055;28;20075;-54
2022/07/10 07:36:25;;;;;;;12.10;11.00;;;;;;;21.05;100.00;96861.66;5081739;28;20083;-57
2022/07/10 07:38:53;;;;;;;12.02;11.02;;;;;;;21.33;100.00;96859.69;5075749;28;20075;-50
2022/07/10 07:41:22;;;;;;;11.90;10.93;;;;;;;22.44;100.00;96866.41;5076729;28;20087;-52
2022/07/10 07:43:51;;;;;;;11.55;10.43;;;;;;;22.73;100.00;96863.22;5077522;28;20075;-53
2022/07/10 07:46:19;;;;;;;10.63;9.82;;;;;;;22.30;100.00;96856.69;5080324;28;20921;-56
2022/07/10 07:48:48;;;;;;;10.68;9.77;;;;;;;22.07;100.00;96855.25;5077468;28;20475;-51
2022/07/10 07:51:18;;;;;;;11.75;9.55;;;;;;;21.60;100.00;96869.66;5073555;28;20138;-56
2022/07/10 07:53:46;;;;;;;9.90;8.52;;;;;;;21.05;100.00;96851.75;5078096;28;20049;-49
2022/07/10 07:56:16;;;;;;;10.63;9.73;;;;;;;20.70;100.00;96877.78;5086787;28;20095;-53
2022/07/10 07:58:44;;;;;;;9.60;8.70;;;;;;;21.01;100.00;96874.63;5080196;28;20494;-51
2022/07/10 08:01:12;;;;;;;10.98;9.88;;;;;;;21.41;100.00;96874.81;5082220;28;20076;-49
2022/07/10 08:03:41;;;;;;;9.43;8.20;;;;;;;21.71;100.00;96880.66;5080112;28;20079;-50
2022/07/10 08:06:31;;;;;;;7.75;7.05;;;;;;;22.59;100.00;96860.78;5078667;28;20083;-50
2022/07/10 08:08:59;;;;;;;8.18;7.57;;;;;;;22.87;100.00;96855.09;5079724;28;20060;-51
2022/07/10 08:11:27;;;;;;;6.93;6.22;;;;;;;22.92;100.00;96847.25;5083897;28;20087;-51
2022/07/10 08:13:56;;;;;;;8.27;6.00;;;;;;;22.05;100.00;96854.63;5077076;28;20087;-47
2022/07/10 08:16:24;;;;;;;8.20;5.28;;;;;;;22.10;100.00;96862.06;5085510;28;20088;-49
2022/07/10 08:18:52;;;;;;;8.90;6.00;;;;;;;21.36;100.00;96866.53;5081325;28;20091;-53
2022/07/10 08:21:22;;;;;;;5.45;4.88;;;;;;;20.73;100.00;96871.22;5084202;28;20071;-52
2022/07/10 08:23:53;;;;;;;8.00;6.65;;;;;;;20.61;100.00;96863.75;5082611;28;20076;-47
2022/07/10 08:26:21;;;;;;;6.28;5.55;;;;;;;21.22;100.00;96872.84;5081311;28;20095;-50
2022/07/10 08:28:50;;;;;;;6.30;5.07;;;;;;;21.22;100.00;96862.13;5082018;28;20063;-57
2022/07/10 08:31:18;;;;;;;7.88;6.05;;;;;;;21.61;100.00;96865.94;5083304;28;20075;-53
2022/07/10 08:33:47;;;;;;;7.00;6.18;;;;;;;21.53;100.00;96864.28;5080605;28;20071;-53
2022/07/10 08:36:16;;;;;;;6.97;6.30;;;;;;;20.97;100.00;96853.78;5081220;28;20079;-53
2022/07/10 08:39:06;;;;;;;5.88;5.30;;;;;;;20.76;100.00;96852.06;5066431;28;20481;-50
2022/07/10 08:41:36;;;;;;;7.80;5.53;;;;;;;21.10;100.00;96856.53;5074885;28;20075;-48
2022/07/10 08:44:05;;;;;;;7.10;5.90;;;;;;;20.52;100.00;96870.28;5080811;28;20068;-50
2022/07/10 08:46:34;;;;;;;8.13;5.65;;;;;;;20.69;100.00;96867.28;5071341;28;20981;-46
2022/07/10 08:49:06;;;;;;;7.35;5.70;;;;;;;21.40;100.00;96858.91;5076656;28;20072;-50
2022/07/10 08:51:38;;;;;;;6.38;5.70;;;;;;;20.85;100.00;96865.09;5077082;28;20095;-51
2022/07/10 08:54:09;;;;;;;5.32;4.93;;;;;;;20.95;100.00;96867.38;5080460;28;20451;-48
2022/07/10 08:56:38;;;;;;;7.22;5.75;;;;;;;21.19;100.00;96867.88;5080207;28;20181;-44
2022/07/10 08:59:06;;;;;;;8.10;5.45;;;;;;;21.62;100.00;96856.88;5080569;28;20080;-46
2022/07/10 09:01:35;;;;;;;5.88;5.20;;;;;;;22.19;100.00;96844.72;5080017;28;20765;-47
2022/07/10 09:04:03;;;;;;;6.45;5.78;;;;;;;21.87;100.00;96852.56;5078317;28;20151;-51
2022/07/10 09:06:32;;;;;;;5.93;5.38;;;;;;;21.98;100.00;96856.47;5074736;28;20083;-51
2022/07/10 09:09:02;;;;;;;7.88;6.03;;;;;;;21.87;100.00;96852.56;5076401;28;20067;-50
2022/07/10 09:11:33;;;;;;;6.25;5.55;;;;;;;21.88;100.00;96854.19;5070652;28;20083;-50
2022/07/10 09:14:04;;;;;;;6.57;5.72;;;;;;;21.61;100.00;96857.91;5082598;28;20083;-50
2022/07/10 09:16:33;;;;;;;6.85;5.70;;;;;;;21.72;100.00;96857.31;5090123;28;20412;-47
2022/07/10 09:19:18;;;;;;;6.80;6.32;;;;;;;21.62;100.00;96851.53;5084935;28;20495;-51
2022/07/10 09:21:47;;;;;;;5.93;5.43;;;;;;;22.22;100.00;96852.38;5088516;28;20083;-50
2022/07/10 09:24:19;;;;;;;6.25;4.95;;;;;;;22.50;100.00;96842.22;5090284;28;20091;-47
2022/07/10 09:27:00;;;;;;;4.50;4.13;;;;;;;22.62;100.00;96836.16;5089233;28;20090;-45
2022/07/10 09:29:29;;;;;;;5.55;4.65;;;;;;;22.57;100.00;96860.16;5097489;28;20076;-46
2022/07/10 09:31:58;;;;;;;4.95;4.45;;;;;;;22.22;100.00;96855.88;5084998;28;20086;-46
2022/07/10 09:34:37;;;;;;;5.55;4.88;;;;;;;22.12;100.00;96858.13;5090158;28;20091;-47
2022/07/10 09:37:22;;;;;;;5.07;4.32;;;;;;;22.77;100.00;96854.72;5084238;28;20086;-49
2022/07/10 09:40:01;;;;;;;5.35;4.95;;;;;;;23.43;100.00;96851.75;5085960;28;20376;-47
2022/07/10 09:42:32;;;;;;;6.95;4.97;;;;;;;22.60;100.00;96852.50;5088773;28;20564;-47
2022/07/10 09:45:18;;;;;;;4.85;4.40;;;;;;;22.63;100.00;96846.69;5087171;28;20071;-50
2022/07/10 09:47:55;;;;;;;4.63;4.22;;;;;;;22.15;100.00;96848.88;5084096;28;20173;-47
2022/07/10 09:50:26;;;;;;;4.93;4.43;;;;;;;22.05;100.00;96855.44;5089481;28;20080;-45
2022/07/10 09:52:55;;;;;;;;;;;;;;;22.72;100.00;96850.81;5090148;28;20093;-47
2022/07/10 09:55:24;;;;;;;5.10;4.55;;;;;;;22.84;100.00;96850.97;5090000;28;20544;-51
2022/07/10 09:57:58;;;;;;;5.60;4.75;;;;;;;22.11;100.00;96843.06;5089227;28;20581;-47
2022/07/10 10:00:28;;;;;;;5.47;4.82;;;;;;;22.49;100.00;96842.41;5088306;28;20080;-51
2022/07/10 10:02:58;;;;;;;6.32;5.85;;;;;;;21.94;100.00;96857.94;5089308;28;20079;-47
2022/07/10 10:05:37;;;;;;;;;;;;;;;22.63;100.00;96838.63;5088184;28;20075;-46
2022/07/10 10:08:12;;;;;;;5.60;4.80;;;;;;;22.56;100.00;96843.22;5089395;28;19959;-43
2022/07/10 10:10:45;;;;;;;5.72;5.22;;;;;;;22.58;100.00;96845.69;5083007;28;20530;-49
2022/07/10 10:13:17;;;;;;;6.38;4.88;;;;;;;21.97;100.00;96842.22;5087242;28;20064;-44
2022/07/10 10:15:47;;;;;;;6.28;5.72;;;;;;;21.44;100.00;96838.66;5089431;28;20090;-50
2022/07/10 10:18:16;;;;;;;;;;;;;;;22.30;100.00;96846.78;5089796;28;20075;-50
2022/07/10 10:20:45;;;;;;;5.88;5.18;;;;;;;22.31;100.00;96848.44;5088555;28;19955;-49
2022/07/10 10:23:17;;;;;;;5.55;5.05;;;;;;;22.43;100.00;96838.69;5090193;28;20146;-46
2022/07/10 10:25:46;;;;;;;5.32;4.93;;;;;;;22.09;100.00;96836.22;5090921;28;20084;-45
2022/07/10 10:28:16;;;;;;;5.57;5.07;;;;;;;22.29;100.00;96834.38;5084354;28;20078;-46
2022/07/10 10:30:46;;;;;;;6.47;5.53;;;;;;;23.07;100.00;96831.69;5088756;28;20068;-45
2022/07/10 10:33:46;;;;;;;5.20;4.80;;;;;;;22.89;100.00;96826.16;5089034;28;20702;-46
2022/07/10 10:36:36;;;;;;;5.43;5.03;;;;;;;22.80;91.44;96833.63;5084451;28;20447;-47
2022/07/10 10:39:12;;;;;;;8.02;7.35;;;;;;;22.26;100.00;96832.09;5087610;28;20083;-45
2022/07/10 10:41:42;;;;;;;6.90;6.40;;;;;;;22.01;100.00;96845.31;5087470;28;20076;-52
2022/07/10 10:44:28;;;;;;;6.20;5.18;;;;;;;21.62;100.00;96838.09;5088684;28;20084;-49
2022/07/10 10:47:01;;;;;;;7.22;6.63;;;;;;;21.13;100.00;96848.09;5088703;28;20086;-53
2022/07/10 10:49:51;;;;;;;5.68;4.68;;;;;;;21.27;100.00;96833.66;5088193;28;20083;-47
2022/07/10 10:52:20;;;;;;;7.97;5.78;;;;;;;20.90;100.00;96837.69;5088398;28;20087;-47
2022/07/10 10:55:08;;;;;;;5.22;4.80;;;;;;;21.71;100.00;96834.16;5091554;28;20091;-48
2022/07/10 10:57:51;;;;;;;6.43;5.82;;;;;;;21.50;100.00;96816.38;5088162;28;20067;-48
2022/07/10 11:00:41;;;;;;;6.20;5.80;;;;;;;21.43;100.00;96818.25;5092497;28;20079;-53
2022/07/10 11:03:14;;;;;;;6.28;5.68;;;;;;;21.75;100.00;96828.19;5091608;28;20076;-55
2022/07/10 11:05:44;;;;;;;5.05;4.65;;;;;;;22.09;100.00;96830.84;5087117;28;20136;-49
2022/07/10 11:08:13;;;;;;;4.82;4.43;;;;;;;22.32;100.00;96825.06;5092808;28;20076;-52
2022/07/10 11:10:45;;;;;;;4.53;3.75;;;;;;;22.16;100.00;96823.63;5091346;28;20091;-49
2022/07/10 11:13:17;;;;;;;6.00;4.85;;;;;;;22.17;94.88;96831.50;5092225;28;20068;-47
2022/07/10 11:15:47;;;;;;;5.25;4.95;;;;;;;22.22;100.00;96833.56;5092650;28;20084;-47
2022/07/10 11:18:16;;;;;;;;;;;;;;;22.38;100.00;96835.81;5091013;28;20423;-46
2022/07/10 11:20:49;;;;;;;4.43;4.03;;;;;;;22.28;78.46;96830.88;5095589;28;20413;-49
2022/07/10 11:23:38;;;;;;;5.15;4.65;;;;;;;22.31;80.14;96831.50;5086743;28;20109;-49
2022/07/10 11:26:10;;;;;;;4.88;4.38;;;;;;;22.80;81.37;96822.03;5076894;28;20517;-50
2022/07/10 11:28:50;;;;;;;6.13;4.03;;;;;;;23.16;82.31;96819.63;5090956;28;20091;-47
2022/07/10 11:31:18;;;;;;;;;;;;;;;23.34;78.80;96805.44;5092829;28;20451;-45
2022/07/10 11:33:48;;;;;;;3.80;3.50;;;;;;;23.04;74.07;96817.81;5092111;28;19955;-45
2022/07/10 11:36:17;;;;;;;4.40;4.00;;;;;;;22.98;71.57;96822.19;5092119;28;20079;-47
2022/07/10 11:38:46;;;;;;;3.72;3.30;;;;;;;22.71;75.96;96829.50;5091619;28;20087;-49
2022/07/10 11:41:21;;;;;;;4.68;4.28;;;;;;;23.24;74.52;96825.81;5091783;28;20087;-44